createdAt,value
2019-05-10T00:02:04.671Z,10.90
2019-05-10T00:05:13.992Z,10.90
2019-05-10T00:08:23.601Z,10.80
2019-05-10T00:11:39.256Z,10.70
2019-05-10T00:14:40.377Z,10.70
2019-05-10T00:17:31.685Z,10.60
2019-05-10T00:20:23.006Z,10.60
2019-05-10T00:23:14.398Z,10.60
2019-05-10T00:26:05.939Z,10.60
2019-05-10T00:28:57.274Z,10.50
2019-05-10T00:31:48.610Z,10.50
2019-05-10T00:34:40.297Z,10.50
2019-05-10T00:37:31.763Z,10.50
2019-05-10T00:40:23.243Z,10.40
2019-05-10T00:43:14.705Z,10.40
2019-05-10T00:46:06.176Z,10.40
2019-05-10T00:48:57.700Z,10.40
2019-05-10T00:51:49.986Z,10.40
2019-05-10T00:54:41.972Z,10.40
2019-05-10T00:57:34.463Z,10.40
2019-05-10T01:00:25.900Z,10.40
2019-05-10T01:03:17.455Z,10.40
2019-05-10T01:06:09.272Z,10.30
2019-05-10T01:09:00.891Z,10.30
2019-05-10T01:11:53.935Z,10.30
2019-05-10T01:14:46.305Z,10.20
2019-05-10T01:17:37.831Z,10.20
2019-05-10T01:20:29.743Z,10.20
2019-05-10T01:23:21.560Z,10.20
2019-05-10T01:26:13.665Z,10.20
2019-05-10T01:29:06.065Z,10.20
2019-05-10T01:31:57.900Z,10.20
2019-05-10T01:34:49.526Z,10.20
2019-05-10T01:37:41.135Z,10.20
2019-05-10T01:40:32.866Z,10.20
2019-05-10T01:43:24.337Z,10.20
2019-05-10T01:46:16.083Z,10.30
2019-05-10T01:49:07.746Z,10.20
2019-05-10T01:51:59.319Z,10.20
2019-05-10T01:54:51.883Z,10.20
2019-05-10T01:57:43.415Z,10.20
2019-05-10T02:00:34.933Z,10.10
2019-05-10T02:03:26.545Z,10.20
2019-05-10T02:06:18.076Z,10.10
2019-05-10T02:09:09.919Z,10.10
2019-05-10T02:12:01.548Z,10.20
2019-05-10T02:14:53.287Z,10.10
2019-05-10T02:17:44.878Z,10.10
2019-05-10T02:20:36.484Z,10.10
2019-05-10T02:23:27.942Z,10.10
2019-05-10T02:26:19.324Z,10.10
2019-05-10T02:29:10.954Z,10.00
2019-05-10T02:32:02.528Z,10.00
2019-05-10T02:34:54.008Z,10.00
2019-05-10T02:37:46.085Z,10.00
2019-05-10T02:40:38.687Z,9.90
2019-05-10T02:43:30.329Z,9.90
2019-05-10T02:46:21.973Z,9.90
2019-05-10T02:49:13.340Z,9.90
2019-05-10T02:52:05.486Z,9.80
2019-05-10T02:54:57.200Z,9.80
2019-05-10T02:57:49.526Z,9.80
2019-05-10T03:00:42.748Z,9.90
2019-05-10T03:03:34.584Z,9.90
2019-05-10T03:06:28.026Z,9.90
2019-05-10T03:09:19.499Z,9.90
2019-05-10T03:12:26.194Z,9.90
2019-05-10T03:15:18.956Z,10.00
2019-05-10T03:18:10.523Z,10.00
2019-05-10T03:21:02.903Z,10.00
2019-05-10T03:23:54.612Z,10.00
2019-05-10T03:26:51.401Z,9.90
2019-05-10T03:29:41.998Z,9.90
2019-05-10T03:32:33.594Z,9.80
2019-05-10T03:35:25.877Z,9.80
2019-05-10T03:38:17.492Z,9.70
2019-05-10T03:41:09.041Z,9.70
2019-05-10T03:44:00.766Z,9.70
2019-05-10T03:46:52.455Z,9.60
2019-05-10T03:49:43.618Z,9.60
2019-05-10T03:52:35.334Z,9.60
2019-05-10T03:55:26.678Z,9.60
2019-05-10T03:58:18.081Z,9.60
2019-05-10T04:01:10.334Z,9.60
2019-05-10T04:04:01.889Z,9.60
2019-05-10T04:06:53.741Z,9.60
2019-05-10T04:09:45.191Z,9.60
2019-05-10T04:12:36.935Z,9.60
2019-05-10T04:15:28.681Z,9.60
2019-05-10T04:18:20.182Z,9.60
2019-05-10T04:21:11.702Z,9.60
2019-05-10T04:24:03.336Z,9.60
2019-05-10T04:26:54.716Z,9.60
2019-05-10T04:29:46.229Z,9.60
2019-05-10T04:32:37.994Z,9.60
2019-05-10T04:35:29.718Z,9.60
2019-05-10T04:38:21.289Z,9.50
2019-05-10T04:41:12.854Z,9.50
2019-05-10T04:44:04.447Z,9.50
2019-05-10T04:46:55.947Z,9.60
2019-05-10T04:49:47.244Z,9.60
2019-05-10T04:52:38.913Z,9.60
2019-05-10T04:55:30.514Z,9.70
2019-05-10T04:58:22.090Z,9.70
2019-05-10T05:01:13.717Z,9.80
2019-05-10T05:04:05.186Z,9.90
2019-05-10T05:06:56.481Z,10.00
2019-05-10T05:09:48.464Z,9.90
2019-05-10T05:12:39.911Z,9.90
2019-05-10T05:15:31.323Z,10.00
2019-05-10T05:18:22.595Z,9.90
2019-05-10T05:21:13.930Z,9.90
2019-05-10T05:24:06.116Z,9.80
2019-05-10T05:26:58.211Z,9.80
2019-05-10T05:29:49.743Z,9.80
2019-05-10T05:32:44.659Z,9.80
2019-05-10T05:35:34.265Z,9.90
2019-05-10T05:38:25.556Z,10.00
2019-05-10T05:41:17.152Z,10.10
2019-05-10T05:44:08.494Z,10.20
2019-05-10T05:47:00.099Z,10.30
2019-05-10T05:49:51.451Z,10.50
2019-05-10T05:52:43.719Z,10.60
2019-05-10T05:55:35.358Z,10.80
2019-05-10T05:58:27.575Z,10.90
2019-05-10T06:01:26.515Z,11.00
2019-05-10T06:04:13.003Z,11.10
2019-05-10T06:07:04.306Z,11.20
2019-05-10T06:09:56.543Z,11.30
2019-05-10T06:12:50.547Z,11.40
2019-05-10T06:15:40.666Z,11.60
2019-05-10T06:18:32.243Z,11.90
2019-05-10T06:21:26.522Z,12.00
2019-05-10T06:24:16.507Z,11.90
2019-05-10T06:27:09.139Z,11.80
2019-05-10T06:30:00.779Z,11.70
2019-05-10T06:32:53.390Z,11.60
2019-05-10T06:35:45.111Z,11.60
2019-05-10T06:38:36.635Z,11.70
2019-05-10T06:41:28.052Z,12.10
2019-05-10T06:44:19.515Z,12.70
2019-05-10T06:47:11.379Z,13.00
2019-05-10T06:50:03.139Z,13.30
2019-05-10T06:52:54.590Z,13.50
2019-05-10T06:55:45.926Z,13.60
2019-05-10T06:58:38.542Z,13.60
2019-05-10T07:01:30.115Z,13.60
2019-05-10T07:04:21.755Z,13.40
2019-05-10T07:07:22.364Z,13.30
2019-05-10T07:10:17.631Z,13.30
2019-05-10T07:13:03.576Z,13.20
2019-05-10T07:15:54.408Z,13.10
2019-05-10T07:18:46.274Z,12.90
2019-05-10T07:21:38.890Z,12.80
2019-05-10T07:24:30.921Z,12.60
2019-05-10T07:27:22.751Z,12.40
2019-05-10T07:30:16.035Z,12.30
2019-05-10T07:33:07.733Z,12.40
2019-05-10T07:35:59.405Z,12.30
2019-05-10T07:38:51.770Z,12.30
2019-05-10T07:41:43.508Z,12.40
2019-05-10T07:44:35.005Z,12.60
2019-05-10T07:47:30.415Z,13.10
2019-05-10T07:50:20.181Z,13.40
2019-05-10T07:53:16.402Z,13.90
2019-05-10T07:56:06.288Z,14.50
2019-05-10T07:59:00.572Z,15.60
2019-05-10T08:01:51.093Z,16.70
2019-05-10T08:04:43.397Z,17.50
2019-05-10T08:07:34.929Z,18.00
2019-05-10T08:10:28.760Z,18.40
2019-05-10T08:13:21.147Z,18.50
2019-05-10T08:16:19.411Z,18.30
2019-05-10T08:19:07.028Z,17.90
2019-05-10T08:22:01.827Z,18.30
2019-05-10T08:24:54.885Z,19.00
2019-05-10T08:27:50.702Z,19.40
2019-05-10T08:30:51.775Z,19.70
2019-05-10T08:33:37.160Z,19.50
2019-05-10T08:36:28.460Z,20.00
2019-05-10T08:39:22.347Z,20.70
2019-05-10T08:42:30.424Z,20.20
2019-05-10T08:45:08.940Z,19.20
2019-05-10T08:48:06.897Z,19.00
2019-05-10T08:50:57.561Z,19.70
2019-05-10T08:53:52.448Z,19.80
2019-05-10T08:56:43.954Z,19.00
2019-05-10T09:00:12.729Z,18.70
2019-05-10T09:03:09.474Z,18.70
2019-05-10T09:05:56.885Z,19.60
2019-05-10T09:08:54.943Z,19.60
2019-05-10T09:11:43.935Z,19.20
2019-05-10T09:14:34.175Z,18.80
2019-05-10T09:17:28.345Z,18.60
2019-05-10T09:20:25.959Z,19.10
2019-05-10T09:23:18.659Z,19.90
2019-05-10T09:26:10.293Z,20.50
2019-05-10T09:28:59.117Z,20.60
2019-05-10T09:31:53.419Z,20.40
2019-05-10T09:34:45.016Z,20.10
2019-05-10T09:37:36.459Z,20.00
2019-05-10T09:40:27.882Z,19.90
2019-05-10T09:43:23.542Z,20.40
2019-05-10T09:46:14.130Z,21.10
2019-05-10T09:49:14.564Z,21.70
2019-05-10T09:52:04.680Z,21.40
2019-05-10T09:54:51.951Z,20.60
2019-05-10T09:57:43.454Z,19.70
2019-05-10T10:00:37.964Z,18.90
2019-05-10T10:03:30.309Z,18.40
2019-05-10T10:06:22.396Z,17.80
2019-05-10T10:09:13.855Z,17.60
2019-05-10T10:12:06.926Z,18.00
2019-05-10T10:14:58.996Z,18.30
2019-05-10T10:17:50.662Z,18.40
2019-05-10T10:20:45.078Z,18.20
2019-05-10T10:23:37.796Z,17.80
2019-05-10T10:26:28.330Z,17.40
2019-05-10T10:29:19.688Z,17.00
2019-05-10T10:32:11.191Z,16.80
2019-05-10T10:35:02.774Z,17.10
2019-05-10T10:37:57.404Z,17.20
2019-05-10T10:40:48.099Z,17.10
2019-05-10T10:43:39.608Z,17.00
2019-05-10T10:46:34.062Z,16.90
2019-05-10T10:49:30.239Z,16.90
2019-05-10T10:52:18.169Z,16.80
2019-05-10T10:55:13.435Z,16.80
2019-05-10T10:58:07.175Z,16.70
2019-05-10T11:00:58.299Z,16.50
2019-05-10T11:03:50.337Z,16.30
2019-05-10T11:06:42.344Z,16.20
2019-05-10T11:09:34.008Z,16.70
2019-05-10T11:12:25.386Z,17.70
2019-05-10T11:15:25.268Z,18.50
2019-05-10T11:18:09.938Z,18.70
2019-05-10T11:21:01.937Z,18.50
2019-05-10T11:23:54.747Z,18.10
2019-05-10T11:26:46.107Z,17.80
2019-05-10T11:29:37.564Z,17.80
2019-05-10T11:32:31.369Z,18.00
2019-05-10T11:35:30.240Z,18.30
2019-05-10T11:38:16.356Z,19.60
2019-05-10T11:41:13.564Z,19.90
2019-05-10T11:44:05.422Z,20.00
2019-05-10T11:46:54.332Z,21.00
2019-05-10T11:49:45.577Z,21.60
2019-05-10T11:52:37.105Z,21.20
2019-05-10T11:55:28.505Z,20.40
2019-05-10T11:58:23.716Z,19.60
2019-05-10T12:01:19.108Z,19.00
2019-05-10T12:04:13.157Z,18.40
2019-05-10T12:07:01.772Z,17.90
2019-05-10T12:10:03.310Z,17.70
2019-05-10T12:15:42.605Z,19.10
2019-05-10T12:18:36.024Z,20.70
2019-05-10T12:21:25.221Z,22.70
2019-05-10T12:24:34.423Z,24.60
2019-05-10T12:26:50.371Z,18.20
2019-05-10T12:27:22.540Z,25.50
2019-05-10T12:30:03.447Z,26.00
2019-05-10T12:32:58.010Z,24.80
2019-05-10T12:35:50.819Z,24.00
2019-05-10T12:38:42.371Z,23.70
2019-05-10T12:41:39.656Z,23.90
2019-05-10T12:44:27.366Z,23.00
2019-05-10T12:47:21.305Z,22.30
2019-05-10T12:50:12.312Z,21.80
2019-05-10T12:53:14.318Z,21.10
2019-05-10T12:55:57.076Z,20.50
2019-05-10T12:58:56.783Z,19.90
2019-05-10T13:01:42.673Z,19.40
2019-05-10T13:04:40.478Z,18.90
2019-05-10T13:07:28.112Z,18.60
2019-05-10T13:10:19.868Z,18.40
2019-05-10T13:13:11.671Z,18.40
2019-05-10T13:16:08.671Z,19.30
2019-05-10T13:18:56.631Z,19.80
2019-05-10T13:21:48.101Z,20.00
2019-05-10T13:24:39.590Z,21.00
2019-05-10T13:27:31.391Z,22.10
2019-05-10T13:30:28.222Z,22.50
2019-05-10T13:33:28.386Z,22.10
2019-05-10T13:36:08.897Z,21.50
2019-05-10T13:39:00.541Z,20.90
2019-05-10T13:41:57.083Z,20.40
2019-05-10T13:44:46.550Z,20.00
2019-05-10T13:47:38.155Z,19.60
2019-05-10T13:50:29.829Z,19.20
2019-05-10T13:53:23.195Z,18.90
2019-05-10T13:56:14.037Z,18.60
2019-05-10T13:59:15.765Z,18.20
2019-05-10T14:01:58.477Z,17.90
2019-05-10T14:04:50.183Z,17.70
2019-05-10T14:07:50.456Z,17.70
2019-05-10T14:10:34.990Z,17.80
2019-05-10T14:13:26.614Z,18.00
2019-05-10T14:16:22.419Z,18.20
2019-05-10T14:19:15.887Z,18.20
2019-05-10T14:22:05.586Z,18.20
2019-05-10T14:24:59.148Z,18.10
2019-05-10T14:27:50.190Z,18.00
2019-05-10T14:30:41.555Z,17.80
2019-05-10T14:33:33.228Z,17.70
2019-05-10T14:36:24.643Z,17.40
2019-05-10T14:39:16.247Z,17.00
2019-05-10T14:42:09.487Z,16.70
2019-05-10T14:45:01.278Z,16.40
2019-05-10T14:47:52.633Z,16.10
2019-05-10T14:50:46.659Z,15.90
2019-05-10T14:53:36.680Z,15.80
2019-05-10T14:56:28.909Z,15.70
2019-05-10T14:59:20.596Z,15.70
2019-05-10T15:02:17.052Z,15.70
2019-05-10T15:05:08.790Z,15.80
2019-05-10T15:07:58.283Z,16.10
2019-05-10T15:10:49.968Z,16.40
2019-05-10T15:13:42.733Z,16.70
2019-05-10T15:16:35.086Z,16.80
2019-05-10T15:19:30.994Z,16.90
2019-05-10T15:22:23.217Z,16.90
2019-05-10T15:25:14.810Z,17.10
2019-05-10T15:28:07.322Z,17.30
2019-05-10T15:30:59.256Z,17.40
2019-05-10T15:33:51.179Z,17.50
2019-05-10T15:36:42.657Z,17.50
2019-05-10T15:39:34.365Z,17.50
2019-05-10T15:42:30.393Z,17.50
2019-05-10T15:45:19.493Z,17.60
2019-05-10T15:48:11.047Z,17.50
2019-05-10T15:51:02.490Z,17.40
2019-05-10T15:54:03.682Z,17.40
2019-05-10T15:56:47.219Z,17.30
2019-05-10T15:59:38.477Z,17.30
2019-05-10T16:02:30.234Z,17.40
2019-05-10T16:05:29.428Z,17.60
2019-05-10T16:08:15.145Z,17.80
2019-05-10T16:11:18.027Z,18.10
2019-05-10T16:14:01.603Z,18.20
2019-05-10T16:16:53.489Z,18.10
2019-05-10T16:19:44.854Z,18.20
2019-05-10T16:22:36.237Z,18.20
2019-05-10T16:25:33.011Z,18.20
2019-05-10T16:28:22.874Z,18.10
2019-05-10T16:31:14.170Z,17.90
2019-05-10T16:34:05.731Z,17.80
2019-05-10T16:36:57.128Z,17.60
2019-05-10T16:39:48.569Z,17.20
2019-05-10T16:42:39.943Z,17.00
2019-05-10T16:45:31.343Z,16.60
2019-05-10T16:48:23.308Z,16.40
2019-05-10T16:51:14.972Z,16.30
2019-05-10T16:54:09.778Z,16.30
2019-05-10T16:57:01.173Z,16.20
2019-05-10T16:59:53.726Z,16.10
2019-05-10T17:02:45.285Z,16.00
2019-05-10T17:05:36.566Z,15.90
2019-05-10T17:08:30.711Z,15.80
2019-05-10T17:11:20.726Z,15.80
2019-05-10T17:14:17.726Z,15.80
2019-05-10T17:17:05.853Z,15.70
2019-05-10T17:19:58.754Z,15.60
2019-05-10T17:22:50.343Z,15.50
2019-05-10T17:25:42.350Z,15.30
2019-05-10T17:28:35.435Z,15.20
2019-05-10T17:31:26.766Z,15.20
2019-05-10T17:34:27.696Z,15.10
2019-05-10T17:37:11.179Z,15.00
2019-05-10T17:40:04.739Z,14.90
2019-05-10T17:42:55.587Z,14.90
2019-05-10T17:45:47.199Z,14.70
2019-05-10T17:48:40.891Z,14.60
2019-05-10T17:51:31.359Z,14.50
2019-05-10T17:54:23.518Z,14.40
2019-05-10T17:57:16.697Z,14.30
2019-05-10T18:00:09.404Z,14.20
2019-05-10T18:03:00.749Z,14.20
2019-05-10T18:05:53.510Z,14.10
2019-05-10T18:08:45.622Z,14.10
2019-05-10T18:11:43.036Z,14.00
2019-05-10T18:14:30.643Z,14.00
2019-05-10T18:17:25.874Z,14.00
2019-05-10T18:20:15.273Z,14.00
2019-05-10T18:23:07.224Z,13.90
2019-05-10T18:26:00.225Z,13.90
2019-05-10T18:28:52.083Z,13.90
2019-05-10T18:31:54.465Z,13.90
2019-05-10T18:34:37.416Z,13.90
2019-05-10T18:37:28.701Z,13.80
2019-05-10T18:40:25.123Z,13.70
2019-05-10T18:43:13.950Z,13.60
2019-05-10T18:46:05.737Z,13.40
2019-05-10T18:48:57.239Z,13.30
2019-05-10T18:51:48.644Z,13.20
2019-05-10T18:54:40.048Z,13.20
2019-05-10T18:57:31.598Z,13.10
2019-05-10T19:00:25.357Z,13.10
2019-05-10T19:03:17.079Z,13.00
2019-05-10T19:06:10.934Z,13.00
2019-05-10T19:09:01.607Z,13.00
2019-05-10T19:11:53.919Z,13.00
2019-05-10T19:14:45.764Z,12.90
2019-05-10T19:17:40.341Z,12.90
2019-05-10T19:20:30.201Z,12.80
2019-05-10T19:23:21.729Z,12.70
2019-05-10T19:26:13.181Z,12.70
2019-05-10T19:29:06.591Z,12.60
2019-05-10T19:31:57.922Z,12.50
2019-05-10T19:34:57.146Z,12.50
2019-05-10T19:37:43.216Z,12.40
2019-05-10T19:40:36.083Z,12.30
2019-05-10T19:43:27.942Z,12.30
2019-05-10T19:46:19.456Z,12.30
2019-05-10T19:49:13.374Z,12.20
2019-05-10T19:52:05.551Z,12.20
2019-05-10T19:54:56.938Z,12.10
2019-05-10T19:57:49.442Z,12.10
2019-05-10T20:00:41.800Z,12.00
2019-05-10T20:03:33.309Z,12.00
2019-05-10T20:06:24.496Z,11.90
2019-05-10T20:09:15.846Z,11.90
2019-05-10T20:12:07.268Z,11.90
2019-05-10T20:14:58.596Z,11.80
2019-05-10T20:17:52.048Z,11.80
2019-05-10T20:20:43.313Z,11.80
2019-05-10T20:23:34.627Z,11.80
2019-05-10T20:26:25.993Z,11.80
2019-05-10T20:29:17.614Z,11.80
2019-05-10T20:32:08.954Z,11.70
2019-05-10T20:35:00.359Z,11.70
2019-05-10T20:38:01.578Z,11.80
2019-05-10T20:40:44.960Z,11.80
2019-05-10T20:43:36.753Z,11.80
2019-05-10T20:46:28.731Z,11.70
2019-05-10T20:49:20.149Z,11.70
2019-05-10T20:52:12.294Z,11.70
2019-05-10T20:55:04.192Z,11.70
2019-05-10T20:57:56.001Z,11.60
2019-05-10T21:00:48.218Z,11.60
2019-05-10T21:03:40.138Z,11.50
2019-05-10T21:06:31.694Z,11.50
2019-05-10T21:09:23.339Z,11.50
2019-05-10T21:12:14.663Z,11.50
2019-05-10T21:15:06.458Z,11.50
2019-05-10T21:17:58.266Z,11.40
2019-05-10T21:20:49.901Z,11.40
2019-05-10T21:23:41.572Z,11.40
2019-05-10T21:26:33.051Z,11.30
2019-05-10T21:29:24.386Z,11.40
2019-05-10T21:32:16.969Z,11.30
2019-05-10T21:35:09.972Z,11.30
2019-05-10T21:38:01.592Z,11.20
2019-05-10T21:40:53.108Z,11.20
2019-05-10T21:43:44.361Z,11.20
2019-05-10T21:46:35.865Z,11.20
2019-05-10T21:49:27.450Z,11.20
2019-05-10T21:52:18.755Z,11.20
2019-05-10T21:55:10.265Z,11.10
2019-05-10T21:58:01.540Z,11.10
2019-05-10T22:00:54.392Z,11.10
2019-05-10T22:03:47.488Z,11.20
2019-05-10T22:06:39.178Z,11.10
2019-05-10T22:09:30.864Z,11.10
2019-05-10T22:12:22.504Z,11.10
2019-05-10T22:15:14.243Z,11.20
2019-05-10T22:18:05.630Z,11.10
2019-05-10T22:20:57.012Z,11.00
2019-05-10T22:23:48.406Z,11.00
2019-05-10T22:26:39.962Z,11.00
2019-05-10T22:29:31.450Z,10.90
2019-05-10T22:32:22.811Z,10.90
2019-05-10T22:35:14.158Z,10.90
2019-05-10T22:38:05.735Z,10.80
2019-05-10T22:40:57.933Z,10.80
2019-05-10T22:43:49.263Z,10.80
2019-05-10T22:46:40.588Z,10.80
2019-05-10T22:49:33.433Z,10.80
2019-05-10T22:52:25.649Z,10.80
2019-05-10T22:55:17.209Z,10.80
2019-05-10T22:58:08.762Z,10.80
2019-05-10T23:01:01.340Z,10.80
2019-05-10T23:03:54.196Z,10.80
2019-05-10T23:06:45.836Z,10.80
2019-05-10T23:09:37.779Z,10.80
2019-05-10T23:12:29.215Z,10.80
2019-05-10T23:15:20.647Z,10.70
2019-05-10T23:18:12.017Z,10.70
2019-05-10T23:21:03.666Z,10.70
2019-05-10T23:23:55.255Z,10.70
2019-05-10T23:26:47.252Z,10.70
2019-05-10T23:29:38.535Z,10.60
2019-05-10T23:32:30.005Z,10.60
2019-05-10T23:35:21.691Z,10.50
2019-05-10T23:38:13.251Z,10.50
2019-05-10T23:41:04.718Z,10.50
2019-05-10T23:43:56.117Z,10.50
2019-05-10T23:46:47.628Z,10.60
2019-05-10T23:49:39.167Z,10.60
2019-05-10T23:52:30.796Z,10.60
2019-05-10T23:55:23.106Z,10.60
2019-05-10T23:58:14.505Z,10.60
